sensor_id;sensor_type;location;lat;lon;timestamp;pressure;altitude;pressure_sealevel;temperature;humidity
40596;BME280;26304;48.794;9.820;2023-11-22T00:01:41;96562.78;;;15.79;59.87
40596;BME280;26304;48.794;9.820;2023-11-22T00:04:04;96568.72;;;15.76;60.31
40596;BME280;26304;48.794;9.820;2023-11-22T00:06:26;96566.50;;;15.78;59.94
40596;BME280;26304;48.794;9.820;2023-11-22T00:08:52;96560.16;;;15.79;59.98
40596;BME280;26304;48.794;9.820;2023-11-22T00:11:14;96565.75;;;15.78;59.75
40596;BME280;26304;48.794;9.820;2023-11-22T00:13:37;96560.16;;;15.79;60.14
40596;BME280;26304;48.794;9.820;2023-11-22T00:15:59;96571.09;;;15.85;59.58
40596;BME280;26304;48.794;9.820;2023-11-22T00:18:21;96572.88;;;15.81;59.83
40596;BME280;26304;48.794;9.820;2023-11-22T00:20:45;96573.31;;;15.83;59.74
40596;BME280;26304;48.794;9.820;2023-11-22T00:23:08;96578.50;;;15.79;60.25
40596;BME280;26304;48.794;9.820;2023-11-22T00:25:32;96574.69;;;15.77;59.75
40596;BME280;26304;48.794;9.820;2023-11-22T00:27:54;96568.38;;;15.78;59.77
40596;BME280;26304;48.794;9.820;2023-11-22T00:30:17;96576.22;;;15.78;60.28
40596;BME280;26304;48.794;9.820;2023-11-22T00:32:40;96579.94;;;15.77;60.29
40596;BME280;26304;48.794;9.820;2023-11-22T00:35:03;96581.00;;;15.76;59.85
40596;BME280;26304;48.794;9.820;2023-11-22T00:37:25;96589.22;;;15.74;60.30
40596;BME280;26304;48.794;9.820;2023-11-22T00:39:47;96592.19;;;15.73;59.97
40596;BME280;26304;48.794;9.820;2023-11-22T00:42:11;96594.56;;;15.78;60.19
40596;BME280;26304;48.794;9.820;2023-11-22T00:44:34;96597.19;;;15.78;59.76
40596;BME280;26304;48.794;9.820;2023-11-22T00:46:57;96594.22;;;15.79;59.88
40596;BME280;26304;48.794;9.820;2023-11-22T00:49:19;96606.91;;;15.77;60.03
40596;BME280;26304;48.794;9.820;2023-11-22T00:51:41;96603.53;;;15.77;59.84
40596;BME280;26304;48.794;9.820;2023-11-22T00:54:04;96599.69;;;15.74;60.20
40596;BME280;26304;48.794;9.820;2023-11-22T00:56:27;96604.59;;;15.76;59.90
40596;BME280;26304;48.794;9.820;2023-11-22T00:58:50;96607.91;;;15.73;60.31
40596;BME280;26304;48.794;9.820;2023-11-22T01:01:14;96611.66;;;15.72;60.42
40596;BME280;26304;48.794;9.820;2023-11-22T01:03:36;96614.28;;;15.72;59.63
40596;BME280;26304;48.794;9.820;2023-11-22T01:05:58;96618.03;;;15.74;60.38
40596;BME280;26304;48.794;9.820;2023-11-22T01:08:21;96616.19;;;15.75;60.19
40596;BME280;26304;48.794;9.820;2023-11-22T01:10:43;96618.66;;;15.68;60.05
40596;BME280;26304;48.794;9.820;2023-11-22T01:13:07;96625.44;;;15.69;59.86
40596;BME280;26304;48.794;9.820;2023-11-22T01:15:30;96627.38;;;15.72;60.30
40596;BME280;26304;48.794;9.820;2023-11-22T01:17:53;96624.31;;;15.70;59.67
40596;BME280;26304;48.794;9.820;2023-11-22T01:20:15;96622.47;;;15.70;59.75
40596;BME280;26304;48.794;9.820;2023-11-22T01:22:38;96631.50;;;15.73;59.88
40596;BME280;26304;48.794;9.820;2023-11-22T01:25:00;96629.22;;;15.71;60.17
40596;BME280;26304;48.794;9.820;2023-11-22T01:27:23;96635.16;;;15.68;60.31
40596;BME280;26304;48.794;9.820;2023-11-22T01:29:45;96640.47;;;15.72;60.02
40596;BME280;26304;48.794;9.820;2023-11-22T01:32:09;96650.28;;;15.75;60.05
40596;BME280;26304;48.794;9.820;2023-11-22T01:34:32;96651.03;;;15.75;59.65
40596;BME280;26304;48.794;9.820;2023-11-22T01:36:54;96643.44;;;15.70;59.83
40596;BME280;26304;48.794;9.820;2023-11-22T01:39:16;96650.81;;;15.65;60.37
40596;BME280;26304;48.794;9.820;2023-11-22T01:41:39;96645.63;;;15.68;60.02
40596;BME280;26304;48.794;9.820;2023-11-22T01:44:03;96648.88;;;15.61;60.25
40596;BME280;26304;48.794;9.820;2023-11-22T01:46:25;96655.63;;;15.62;59.91
40596;BME280;26304;48.794;9.820;2023-11-22T01:48:50;96650.06;;;15.64;59.87
40596;BME280;26304;48.794;9.820;2023-11-22T01:51:13;96648.53;;;15.63;60.25
40596;BME280;26304;48.794;9.820;2023-11-22T01:53:36;96664.19;;;15.59;60.67
40596;BME280;26304;48.794;9.820;2023-11-22T01:55:58;96657.16;;;15.64;60.14
40596;BME280;26304;48.794;9.820;2023-11-22T01:58:21;96655.97;;;15.61;60.00
40596;BME280;26304;48.794;9.820;2023-11-22T02:00:49;96652.66;;;15.64;59.76
40596;BME280;26304;48.794;9.820;2023-11-22T02:03:11;96661.56;;;15.59;60.22
40596;BME280;26304;48.794;9.820;2023-11-22T02:05:35;96667.22;;;15.61;60.22
40596;BME280;26304;48.794;9.820;2023-11-22T02:07:58;96675.06;;;15.61;60.38
40596;BME280;26304;48.794;9.820;2023-11-22T02:10:20;96677.28;;;15.59;59.95
40596;BME280;26304;48.794;9.820;2023-11-22T02:12:45;96677.28;;;15.59;59.75
40596;BME280;26304;48.794;9.820;2023-11-22T02:15:08;96679.16;;;15.59;60.30
40596;BME280;26304;48.794;9.820;2023-11-22T02:17:30;96682.88;;;15.58;60.06
40596;BME280;26304;48.794;9.820;2023-11-22T02:19:55;96685.16;;;15.59;59.66
40596;BME280;26304;48.794;9.820;2023-11-22T02:22:19;96688.09;;;15.58;59.75
40596;BME280;26304;48.794;9.820;2023-11-22T02:24:44;96685.22;;;15.63;60.23
40596;BME280;26304;48.794;9.820;2023-11-22T02:27:06;96681.16;;;15.66;59.64
40596;BME280;26304;48.794;9.820;2023-11-22T02:29:28;96679.22;;;15.62;60.26
40596;BME280;26304;48.794;9.820;2023-11-22T02:31:51;96684.47;;;15.62;60.07
40596;BME280;26304;48.794;9.820;2023-11-22T02:34:13;96682.13;;;15.57;60.41
40596;BME280;26304;48.794;9.820;2023-11-22T02:36:36;96685.16;;;15.59;60.05
40596;BME280;26304;48.794;9.820;2023-11-22T02:38:58;96686.91;;;15.55;60.08
40596;BME280;26304;48.794;9.820;2023-11-22T02:41:22;96685.41;;;15.54;60.58
40596;BME280;26304;48.794;9.820;2023-11-22T02:43:46;96703.47;;;15.59;59.83
40596;BME280;26304;48.794;9.820;2023-11-22T02:46:08;96703.81;;;15.58;60.34
40596;BME280;26304;48.794;9.820;2023-11-22T02:48:31;96701.53;;;15.56;59.68
40596;BME280;26304;48.794;9.820;2023-11-22T02:50:54;96708.03;;;15.62;59.82
40596;BME280;26304;48.794;9.820;2023-11-22T02:53:18;96718.13;;;15.60;60.21
40596;BME280;26304;48.794;9.820;2023-11-22T02:55:40;96715.06;;;15.58;60.19
40596;BME280;26304;48.794;9.820;2023-11-22T02:58:04;96725.47;;;15.55;60.12
40596;BME280;26304;48.794;9.820;2023-11-22T03:00:27;96719.13;;;15.56;59.50
40596;BME280;26304;48.794;9.820;2023-11-22T03:02:50;96723.59;;;15.55;59.61
40596;BME280;26304;48.794;9.820;2023-11-22T03:05:14;96722.91;;;15.58;59.83
40596;BME280;26304;48.794;9.820;2023-11-22T03:07:37;96729.69;;;15.59;59.78
40596;BME280;26304;48.794;9.820;2023-11-22T03:09:59;96718.34;;;15.55;59.91
40596;BME280;26304;48.794;9.820;2023-11-22T03:12:24;96716.84;;;15.54;59.99
40596;BME280;26304;48.794;9.820;2023-11-22T03:14:48;96733.00;;;15.56;60.15
40596;BME280;26304;48.794;9.820;2023-11-22T03:17:10;96740.44;;;15.54;60.27
40596;BME280;26304;48.794;9.820;2023-11-22T03:19:34;96743.13;;;15.58;59.56
40596;BME280;26304;48.794;9.820;2023-11-22T03:21:56;96731.63;;;15.62;59.38
40596;BME280;26304;48.794;9.820;2023-11-22T03:24:19;96735.19;;;15.54;59.86
40596;BME280;26304;48.794;9.820;2023-11-22T03:26:41;96729.84;;;15.51;60.48
40596;BME280;26304;48.794;9.820;2023-11-22T03:29:04;96736.28;;;15.53;60.01
40596;BME280;26304;48.794;9.820;2023-11-22T03:31:27;96735.88;;;15.51;60.28
40596;BME280;26304;48.794;9.820;2023-11-22T03:33:50;96739.94;;;15.49;60.00
40596;BME280;26304;48.794;9.820;2023-11-22T03:36:12;96748.19;;;15.51;60.16
40596;BME280;26304;48.794;9.820;2023-11-22T03:38:35;96744.41;;;15.48;59.27
40596;BME280;26304;48.794;9.820;2023-11-22T03:40:57;96750.81;;;15.51;60.35
40596;BME280;26304;48.794;9.820;2023-11-22T03:43:20;96763.50;;;15.49;60.34
40596;BME280;26304;48.794;9.820;2023-11-22T03:45:43;96767.59;;;15.46;60.13
40596;BME280;26304;48.794;9.820;2023-11-22T03:48:06;96779.56;;;15.47;60.05
40596;BME280;26304;48.794;9.820;2023-11-22T03:50:29;96786.66;;;15.47;60.04
40596;BME280;26304;48.794;9.820;2023-11-22T03:52:51;96790.81;;;15.48;60.05
40596;BME280;26304;48.794;9.820;2023-11-22T03:55:14;96793.00;;;15.46;59.62
40596;BME280;26304;48.794;9.820;2023-11-22T03:57:36;96797.50;;;15.45;59.87
40596;BME280;26304;48.794;9.820;2023-11-22T03:59:59;96802.06;;;15.48;59.77
40596;BME280;26304;48.794;9.820;2023-11-22T04:02:21;96810.75;;;15.52;60.00
40596;BME280;26304;48.794;9.820;2023-11-22T04:04:45;96813.81;;;15.54;59.89
40596;BME280;26304;48.794;9.820;2023-11-22T04:07:07;96814.47;;;15.51;59.77
40596;BME280;26304;48.794;9.820;2023-11-22T04:09:30;96823.44;;;15.50;59.71
40596;BME280;26304;48.794;9.820;2023-11-22T04:11:52;96827.91;;;15.50;59.83
40596;BME280;26304;48.794;9.820;2023-11-22T04:14:14;96828.94;;;15.45;59.31
40596;BME280;26304;48.794;9.820;2023-11-22T04:16:37;96834.59;;;15.47;60.04
40596;BME280;26304;48.794;9.820;2023-11-22T04:18:59;96840.59;;;15.48;59.75
40596;BME280;26304;48.794;9.820;2023-11-22T04:21:23;96839.81;;;15.47;60.10
40596;BME280;26304;48.794;9.820;2023-11-22T04:23:46;96845.06;;;15.47;59.39
40596;BME280;26304;48.794;9.820;2023-11-22T04:26:09;96842.84;;;15.49;59.43
40596;BME280;26304;48.794;9.820;2023-11-22T04:28:31;96841.34;;;15.48;59.80
40596;BME280;26304;48.794;9.820;2023-11-22T04:30:54;96838.72;;;15.48;59.26
40596;BME280;26304;48.794;9.820;2023-11-22T04:33:16;96840.59;;;15.48;59.70
40596;BME280;26304;48.794;9.820;2023-11-22T04:35:38;96845.06;;;15.47;59.19
40596;BME280;26304;48.794;9.820;2023-11-22T04:38:04;96853.19;;;15.42;59.59
40596;BME280;26304;48.794;9.820;2023-11-22T04:40:26;96861.44;;;15.44;59.32
40596;BME280;26304;48.794;9.820;2023-11-22T04:42:49;96859.63;;;15.44;59.41
40596;BME280;26304;48.794;9.820;2023-11-22T04:45:11;96851.66;;;15.41;59.42
40596;BME280;26304;48.794;9.820;2023-11-22T04:47:34;96868.91;;;15.42;59.60
40596;BME280;26304;48.794;9.820;2023-11-22T04:49:56;96866.63;;;15.40;59.16
40596;BME280;26304;48.794;9.820;2023-11-22T04:52:18;96872.59;;;15.41;59.76
40596;BME280;26304;48.794;9.820;2023-11-22T04:54:42;96868.16;;;15.41;59.42
40596;BME280;26304;48.794;9.820;2023-11-22T04:57:04;96873.94;;;15.35;59.92
40596;BME280;26304;48.794;9.820;2023-11-22T04:59:27;96873.94;;;15.35;59.71
40596;BME280;26304;48.794;9.820;2023-11-22T05:01:49;96881.91;;;15.38;59.41
40596;BME280;26304;48.794;9.820;2023-11-22T05:04:12;96886.03;;;15.39;59.22
40596;BME280;26304;48.794;9.820;2023-11-22T05:06:35;96879.38;;;15.42;59.10
40596;BME280;26304;48.794;9.820;2023-11-22T05:08:57;96887.16;;;15.38;59.53
40596;BME280;26304;48.794;9.820;2023-11-22T05:11:21;96883.00;;;15.37;59.38
40596;BME280;26304;48.794;9.820;2023-11-22T05:13:43;96882.25;;;15.37;59.20
40596;BME280;26304;48.794;9.820;2023-11-22T05:16:07;96889.00;;;15.38;59.88
40596;BME280;26304;48.794;9.820;2023-11-22T05:18:30;96892.88;;;15.44;60.45
40596;BME280;26304;48.794;9.820;2023-11-22T05:20:52;96898.72;;;15.37;58.86
40596;BME280;26304;48.794;9.820;2023-11-22T05:23:17;96896.34;;;15.04;60.42
40596;BME280;26304;48.794;9.820;2023-11-22T05:25:39;96892.94;;;14.87;60.41
40596;BME280;26304;48.794;9.820;2023-11-22T05:28:02;96910.59;;;14.78;60.39
40596;BME280;26304;48.794;9.820;2023-11-22T05:30:25;96909.72;;;14.86;59.16
40596;BME280;26304;48.794;9.820;2023-11-22T05:32:47;96904.91;;;14.88;58.09
40596;BME280;26304;48.794;9.820;2023-11-22T05:35:14;96906.38;;;14.74;58.53
40596;BME280;26304;48.794;9.820;2023-11-22T05:37:36;96906.78;;;14.76;58.43
40596;BME280;26304;48.794;9.820;2023-11-22T05:40:01;96909.94;;;14.81;57.74
40596;BME280;26304;48.794;9.820;2023-11-22T05:42:24;96909.66;;;14.70;57.41
40596;BME280;26304;48.794;9.820;2023-11-22T05:44:48;96909.94;;;14.81;57.98
40596;BME280;26304;48.794;9.820;2023-11-22T05:47:11;96909.44;;;14.63;57.65
40596;BME280;26304;48.794;9.820;2023-11-22T05:49:34;96916.59;;;14.79;57.33
40596;BME280;26304;48.794;9.820;2023-11-22T05:51:56;96925.09;;;14.88;57.46
40596;BME280;26304;48.794;9.820;2023-11-22T05:54:20;96917.41;;;14.67;56.33
40596;BME280;26304;48.794;9.820;2023-11-22T05:56:42;96925.91;;;14.64;56.19
40596;BME280;26304;48.794;9.820;2023-11-22T05:59:06;96926.53;;;14.48;56.22
40596;BME280;26304;48.794;9.820;2023-11-22T06:01:31;96922.41;;;14.35;55.05
40596;BME280;26304;48.794;9.820;2023-11-22T06:03:53;96948.66;;;14.26;53.71
40596;BME280;26304;48.794;9.820;2023-11-22T06:06:15;96940.06;;;14.13;53.71
40596;BME280;26304;48.794;9.820;2023-11-22T06:08:40;96949.94;;;13.83;52.62
40596;BME280;26304;48.794;9.820;2023-11-22T06:11:03;96955.50;;;13.48;51.34
40596;BME280;26304;48.794;9.820;2023-11-22T06:13:26;96958.31;;;13.22;50.82
40596;BME280;26304;48.794;9.820;2023-11-22T06:15:48;96954.25;;;13.67;51.12
40596;BME280;26304;48.794;9.820;2023-11-22T06:18:12;96963.63;;;14.38;51.06
40596;BME280;26304;48.794;9.820;2023-11-22T06:20:36;96971.88;;;14.77;51.51
40596;BME280;26304;48.794;9.820;2023-11-22T06:22:59;96975.00;;;15.07;51.44
40596;BME280;26304;48.794;9.820;2023-11-22T06:25:21;96983.97;;;15.35;51.08
40596;BME280;26304;48.794;9.820;2023-11-22T06:27:45;96989.69;;;15.81;50.63
40596;BME280;26304;48.794;9.820;2023-11-22T06:30:08;96992.19;;;16.38;50.27
40596;BME280;26304;48.794;9.820;2023-11-22T06:32:31;96992.22;;;16.89;49.31
40596;BME280;26304;48.794;9.820;2023-11-22T06:34:54;96996.81;;;17.31;49.27
40596;BME280;26304;48.794;9.820;2023-11-22T06:37:20;96993.56;;;17.57;49.55
40596;BME280;26304;48.794;9.820;2023-11-22T06:39:43;96997.72;;;18.01;48.88
40596;BME280;26304;48.794;9.820;2023-11-22T06:42:05;97010.13;;;18.01;49.03
40596;BME280;26304;48.794;9.820;2023-11-22T06:44:36;97010.19;;;18.81;47.57
40596;BME280;26304;48.794;9.820;2023-11-22T06:46:58;97012.41;;;19.02;47.37
40596;BME280;26304;48.794;9.820;2023-11-22T06:49:20;97024.81;;;19.32;46.98
40596;BME280;26304;48.794;9.820;2023-11-22T06:51:44;97007.00;;;19.55;46.51
40596;BME280;26304;48.794;9.820;2023-11-22T06:54:06;97011.72;;;19.73;46.38
40596;BME280;26304;48.794;9.820;2023-11-22T06:56:29;97011.91;;;19.91;46.52
40596;BME280;26304;48.794;9.820;2023-11-22T06:58:51;97016.53;;;20.01;46.45
40596;BME280;26304;48.794;9.820;2023-11-22T07:01:14;97021.16;;;20.15;46.39
40596;BME280;26304;48.794;9.820;2023-11-22T07:03:36;97026.84;;;20.17;46.51
40596;BME280;26304;48.794;9.820;2023-11-22T07:05:59;97019.81;;;20.36;46.24
40596;BME280;26304;48.794;9.820;2023-11-22T07:08:24;97022.63;;;20.57;45.94
40596;BME280;26304;48.794;9.820;2023-11-22T07:10:52;97029.22;;;20.74;45.96
40596;BME280;26304;48.794;9.820;2023-11-22T07:13:14;97026.31;;;21.01;45.54
40596;BME280;26304;48.794;9.820;2023-11-22T07:15:37;97023.41;;;21.20;45.57
40596;BME280;26304;48.794;9.820;2023-11-22T07:17:59;97018.78;;;21.03;45.74
40596;BME280;26304;48.794;9.820;2023-11-22T07:20:22;97020.13;;;20.72;46.45
40596;BME280;26304;48.794;9.820;2023-11-22T07:22:44;97028.59;;;20.47;47.15
40596;BME280;26304;48.794;9.820;2023-11-22T07:25:08;97028.81;;;20.27;47.52
40596;BME280;26304;48.794;9.820;2023-11-22T07:27:39;97035.03;;;20.05;47.93
40596;BME280;26304;48.794;9.820;2023-11-22T07:30:01;97042.00;;;19.86;48.58
40596;BME280;26304;48.794;9.820;2023-11-22T07:32:24;97057.56;;;19.61;49.27
40596;BME280;26304;48.794;9.820;2023-11-22T07:34:46;97065.66;;;19.45;48.76
40596;BME280;26304;48.794;9.820;2023-11-22T07:37:09;97069.94;;;19.27;49.57
40596;BME280;26304;48.794;9.820;2023-11-22T07:39:31;97083.50;;;18.98;49.94
40596;BME280;26304;48.794;9.820;2023-11-22T07:41:55;97084.97;;;18.96;49.98
40596;BME280;26304;48.794;9.820;2023-11-22T07:44:18;97083.75;;;18.90;50.23
40596;BME280;26304;48.794;9.820;2023-11-22T07:46:42;97087.78;;;18.83;50.40
40596;BME280;26304;48.794;9.820;2023-11-22T07:49:05;97084.25;;;18.76;50.62
40596;BME280;26304;48.794;9.820;2023-11-22T07:51:28;97084.91;;;18.69;50.62
40596;BME280;26304;48.794;9.820;2023-11-22T07:53:51;97095.31;;;18.62;50.88
40596;BME280;26304;48.794;9.820;2023-11-22T07:56:16;97100.16;;;18.56;51.10
40596;BME280;26304;48.794;9.820;2023-11-22T07:58:40;97106.06;;;18.49;50.92
40596;BME280;26304;48.794;9.820;2023-11-22T08:01:02;97099.56;;;18.43;51.26
40596;BME280;26304;48.794;9.820;2023-11-22T08:03:27;97102.50;;;18.38;51.51
40596;BME280;26304;48.794;9.820;2023-11-22T08:05:50;97108.72;;;18.30;51.31
40596;BME280;26304;48.794;9.820;2023-11-22T08:08:14;97112.22;;;18.14;51.53
40596;BME280;26304;48.794;9.820;2023-11-22T08:10:37;97119.28;;;18.10;51.28
40596;BME280;26304;48.794;9.820;2023-11-22T08:13:00;97126.88;;;18.15;51.34
40596;BME280;26304;48.794;9.820;2023-11-22T08:15:24;97123.16;;;18.17;51.21
40596;BME280;26304;48.794;9.820;2023-11-22T08:17:47;97127.31;;;18.18;51.42
40596;BME280;26304;48.794;9.820;2023-11-22T08:20:12;97121.63;;;18.15;51.97
40596;BME280;26304;48.794;9.820;2023-11-22T08:22:38;97126.81;;;18.12;51.92
40596;BME280;26304;48.794;9.820;2023-11-22T08:25:00;97120.06;;;18.11;51.89
40596;BME280;26304;48.794;9.820;2023-11-22T08:27:24;97124.47;;;18.07;52.33
40596;BME280;26304;48.794;9.820;2023-11-22T08:29:47;97125.66;;;18.09;52.21
40596;BME280;26304;48.794;9.820;2023-11-22T08:32:11;97120.31;;;18.06;51.76
40596;BME280;26304;48.794;9.820;2023-11-22T08:34:33;97124.44;;;18.03;51.80
40596;BME280;26304;48.794;9.820;2023-11-22T08:36:58;97129.34;;;18.05;51.78
40596;BME280;26304;48.794;9.820;2023-11-22T08:39:21;97137.16;;;18.01;51.75
40596;BME280;26304;48.794;9.820;2023-11-22T08:41:43;97134.16;;;18.03;51.66
40596;BME280;26304;48.794;9.820;2023-11-22T08:44:06;97125.88;;;18.01;52.06
40596;BME280;26304;48.794;9.820;2023-11-22T08:46:30;97131.13;;;18.01;51.87
40596;BME280;26304;48.794;9.820;2023-11-22T08:48:53;97124.97;;;17.93;52.39
40596;BME280;26304;48.794;9.820;2023-11-22T08:51:17;97127.19;;;17.91;52.31
40596;BME280;26304;48.794;9.820;2023-11-22T08:53:40;97122.03;;;17.78;52.75
40596;BME280;26304;48.794;9.820;2023-11-22T08:56:05;97128.66;;;17.72;52.95
40596;BME280;26304;48.794;9.820;2023-11-22T08:58:30;97121.47;;;17.69;52.81
40596;BME280;26304;48.794;9.820;2023-11-22T09:00:52;97126.72;;;17.69;52.85
40596;BME280;26304;48.794;9.820;2023-11-22T09:03:18;97127.56;;;17.73;52.82
40596;BME280;26304;48.794;9.820;2023-11-22T09:05:42;97127.16;;;17.71;52.92
40596;BME280;26304;48.794;9.820;2023-11-22T09:08:07;97132.09;;;17.73;53.37
40596;BME280;26304;48.794;9.820;2023-11-22T09:10:39;97130.97;;;17.74;53.11
40596;BME280;26304;48.794;9.820;2023-11-22T09:13:02;97121.47;;;17.69;53.19
40596;BME280;26304;48.794;9.820;2023-11-22T09:15:26;97129.56;;;17.60;53.01
40596;BME280;26304;48.794;9.820;2023-11-22T09:17:53;97125.34;;;17.56;53.36
40596;BME280;26304;48.794;9.820;2023-11-22T09:20:16;97135.44;;;17.54;53.65
40596;BME280;26304;48.794;9.820;2023-11-22T09:22:46;97131.97;;;17.50;53.26
40596;BME280;26304;48.794;9.820;2023-11-22T09:25:14;97137.63;;;17.52;53.15
40596;BME280;26304;48.794;9.820;2023-11-22T09:27:37;97139.84;;;17.50;52.92
40596;BME280;26304;48.794;9.820;2023-11-22T09:30:00;97144.69;;;17.48;53.20
40596;BME280;26304;48.794;9.820;2023-11-22T09:32:22;97142.75;;;17.45;52.87
40596;BME280;26304;48.794;9.820;2023-11-22T09:34:45;97133.69;;;17.42;53.17
40596;BME280;26304;48.794;9.820;2023-11-22T09:37:08;97150.97;;;17.43;53.07
40596;BME280;26304;48.794;9.820;2023-11-22T09:39:32;97149.38;;;17.38;52.85
40596;BME280;26304;48.794;9.820;2023-11-22T09:41:56;97147.84;;;17.37;52.78
40596;BME280;26304;48.794;9.820;2023-11-22T09:44:19;97157.19;;;17.35;53.11
40596;BME280;26304;48.794;9.820;2023-11-22T09:46:44;97153.72;;;17.31;52.84
40596;BME280;26304;48.794;9.820;2023-11-22T09:49:11;97153.03;;;17.34;53.26
40596;BME280;26304;48.794;9.820;2023-11-22T09:51:37;97153.38;;;17.32;52.95
40596;BME280;26304;48.794;9.820;2023-11-22T09:54:04;97160.34;;;17.24;52.89
40596;BME280;26304;48.794;9.820;2023-11-22T09:56:30;97163.97;;;17.20;52.40
40596;BME280;26304;48.794;9.820;2023-11-22T09:58:54;97166.19;;;17.18;52.00
40596;BME280;26304;48.794;9.820;2023-11-22T10:01:17;97167.56;;;17.12;52.18
40596;BME280;26304;48.794;9.820;2023-11-22T10:03:40;97174.00;;;17.14;50.83
40596;BME280;26304;48.794;9.820;2023-11-22T10:06:03;97174.59;;;17.08;50.96
40596;BME280;26304;48.794;9.820;2023-11-22T10:08:25;97167.00;;;17.02;51.17
40596;BME280;26304;48.794;9.820;2023-11-22T10:10:51;97172.25;;;17.02;50.42
40596;BME280;26304;48.794;9.820;2023-11-22T10:13:17;97177.06;;;17.00;50.39
40596;BME280;26304;48.794;9.820;2023-11-22T10:15:41;97181.13;;;16.98;50.38
40596;BME280;26304;48.794;9.820;2023-11-22T10:18:03;97183.25;;;16.92;50.09
40596;BME280;26304;48.794;9.820;2023-11-22T10:20:38;97182.81;;;16.90;49.59
40596;BME280;26304;48.794;9.820;2023-11-22T10:23:01;97195.94;;;16.90;49.58
40596;BME280;26304;48.794;9.820;2023-11-22T10:25:24;97189.41;;;16.84;49.06
40596;BME280;26304;48.794;9.820;2023-11-22T10:27:47;97194.66;;;16.84;48.84
40596;BME280;26304;48.794;9.820;2023-11-22T10:30:13;97201.44;;;16.85;48.87
40596;BME280;26304;48.794;9.820;2023-11-22T10:32:38;97200.16;;;16.79;48.45
40596;BME280;26304;48.794;9.820;2023-11-22T10:35:02;97191.41;;;16.75;48.66
40596;BME280;26304;48.794;9.820;2023-11-22T10:37:26;97183.78;;;16.69;48.69
40596;BME280;26304;48.794;9.820;2023-11-22T10:39:50;97189.13;;;16.73;48.20
40596;BME280;26304;48.794;9.820;2023-11-22T10:42:12;97192.94;;;16.76;47.40
40596;BME280;26304;48.794;9.820;2023-11-22T10:44:37;97201.50;;;16.73;47.78
40596;BME280;26304;48.794;9.820;2023-11-22T10:47:03;97203.16;;;16.65;48.27
40596;BME280;26304;48.794;9.820;2023-11-22T10:49:28;97209.38;;;16.73;48.25
40596;BME280;26304;48.794;9.820;2023-11-22T10:51:55;97200.88;;;16.63;48.42
40596;BME280;26304;48.794;9.820;2023-11-22T10:54:19;97203.69;;;16.70;49.15
40596;BME280;26304;48.794;9.820;2023-11-22T10:56:50;97200.38;;;16.74;49.25
40596;BME280;26304;48.794;9.820;2023-11-22T10:59:15;97198.94;;;16.76;49.33
40596;BME280;26304;48.794;9.820;2023-11-22T11:01:44;97208.22;;;16.86;49.30
40596;BME280;26304;48.794;9.820;2023-11-22T11:04:13;97209.41;;;16.88;50.01
40596;BME280;26304;48.794;9.820;2023-11-22T11:06:39;97207.97;;;16.91;49.16
40596;BME280;26304;48.794;9.820;2023-11-22T11:09:05;97206.69;;;16.85;49.43
40596;BME280;26304;48.794;9.820;2023-11-22T11:11:31;97206.75;;;16.73;49.95
40596;BME280;26304;48.794;9.820;2023-11-22T11:13:57;97205.03;;;16.64;50.12
40596;BME280;26304;48.794;9.820;2023-11-22T11:16:20;97207.66;;;16.64;50.36
40596;BME280;26304;48.794;9.820;2023-11-22T11:18:43;97207.22;;;16.62;49.98
40596;BME280;26304;48.794;9.820;2023-11-22T11:21:09;97204.59;;;16.62;50.20
40596;BME280;26304;48.794;9.820;2023-11-22T11:23:34;97201.56;;;16.60;49.91
40596;BME280;26304;48.794;9.820;2023-11-22T11:25:58;97199.59;;;16.57;50.38
40596;BME280;26304;48.794;9.820;2023-11-22T11:28:25;97194.75;;;16.59;50.04
40596;BME280;26304;48.794;9.820;2023-11-22T11:30:49;97192.13;;;16.59;50.49
40596;BME280;26304;48.794;9.820;2023-11-22T11:33:12;97185.47;;;16.62;50.76
40596;BME280;26304;48.794;9.820;2023-11-22T11:35:39;97186.25;;;16.34;47.31
40596;BME280;26304;48.794;9.820;2023-11-22T11:38:08;97179.03;;;15.50;45.07
40596;BME280;26304;48.794;9.820;2023-11-22T11:40:33;97186.00;;;15.08;43.88
40596;BME280;26304;48.794;9.820;2023-11-22T11:42:56;97185.63;;;14.73;43.15
40596;BME280;26304;48.794;9.820;2023-11-22T11:45:19;97189.25;;;14.47;43.33
40596;BME280;26304;48.794;9.820;2023-11-22T11:47:42;97201.41;;;13.89;43.58
40596;BME280;26304;48.794;9.820;2023-11-22T11:50:06;97215.72;;;14.67;43.80
40596;BME280;26304;48.794;9.820;2023-11-22T11:52:30;97213.59;;;15.06;43.81
40596;BME280;26304;48.794;9.820;2023-11-22T11:54:54;97213.72;;;15.22;44.58
40596;BME280;26304;48.794;9.820;2023-11-22T11:57:19;97220.63;;;15.39;45.06
40596;BME280;26304;48.794;9.820;2023-11-22T11:59:42;97219.97;;;15.79;45.57
40596;BME280;26304;48.794;9.820;2023-11-22T12:02:07;97230.16;;;16.21;44.96
40596;BME280;26304;48.794;9.820;2023-11-22T12:04:30;97237.38;;;16.68;44.68
40596;BME280;26304;48.794;9.820;2023-11-22T12:06:56;97231.03;;;17.14;44.31
40596;BME280;26304;48.794;9.820;2023-11-22T12:09:22;97251.78;;;17.67;44.03
40596;BME280;26304;48.794;9.820;2023-11-22T12:11:47;97243.28;;;18.09;43.38
40596;BME280;26304;48.794;9.820;2023-11-22T12:14:14;97235.88;;;18.54;42.95
40596;BME280;26304;48.794;9.820;2023-11-22T12:16:36;97248.91;;;18.66;42.93
40596;BME280;26304;48.794;9.820;2023-11-22T12:18:59;97249.88;;;18.58;43.64
40596;BME280;26304;48.794;9.820;2023-11-22T12:21:24;97255.28;;;18.45;44.17
40596;BME280;26304;48.794;9.820;2023-11-22T12:23:48;97256.97;;;18.34;44.59
40596;BME280;26304;48.794;9.820;2023-11-22T12:26:12;97268.59;;;18.33;45.17
40596;BME280;26304;48.794;9.820;2023-11-22T12:28:36;97276.34;;;18.26;45.47
40596;BME280;26304;48.794;9.820;2023-11-22T12:31:07;97280.19;;;18.12;46.20
40596;BME280;26304;48.794;9.820;2023-11-22T12:33:30;97286.75;;;18.03;46.33
40596;BME280;26304;48.794;9.820;2023-11-22T12:35:55;97285.50;;;17.96;46.83
40596;BME280;26304;48.794;9.820;2023-11-22T12:38:18;97282.72;;;17.89;47.34
40596;BME280;26304;48.794;9.820;2023-11-22T12:40:43;97283.56;;;17.77;47.14